createdAt,value
2023-05-05T00:00:14.219Z,45.37
2023-05-05T00:01:14.212Z,45.82
2023-05-05T00:02:14.222Z,45.73
2023-05-05T00:03:14.378Z,45.66
2023-05-05T00:04:14.311Z,44.80
2023-05-05T00:05:14.284Z,44.29
2023-05-05T00:06:14.276Z,45.31
2023-05-05T00:07:14.326Z,45.40
2023-05-05T00:08:14.414Z,45.39
2023-05-05T00:09:14.323Z,45.14
2023-05-05T00:10:14.325Z,44.71
2023-05-05T00:11:14.414Z,44.67
2023-05-05T00:12:14.376Z,44.53
2023-05-05T00:13:14.490Z,44.28
2023-05-05T00:14:14.451Z,44.44
2023-05-05T00:15:14.458Z,44.61
2023-05-05T00:16:14.470Z,43.86
2023-05-05T00:17:14.537Z,43.85
2023-05-05T00:18:14.513Z,43.82
2023-05-05T00:19:14.486Z,44.04
2023-05-05T00:20:14.490Z,44.37
2023-05-05T00:21:14.558Z,43.66
2023-05-05T00:22:14.575Z,43.70
2023-05-05T00:23:14.569Z,43.81
2023-05-05T00:24:14.598Z,43.10
2023-05-05T00:25:14.586Z,42.95
2023-05-05T00:26:14.622Z,42.96
2023-05-05T00:27:14.640Z,43.77
2023-05-05T00:28:14.621Z,43.47
2023-05-05T00:29:14.653Z,42.47
2023-05-05T00:30:14.727Z,43.13
2023-05-05T00:31:14.755Z,42.88
2023-05-05T00:32:14.781Z,42.54
2023-05-05T00:33:14.802Z,42.45
2023-05-05T00:34:14.802Z,42.86
2023-05-05T00:35:14.806Z,42.11
2023-05-05T00:36:14.823Z,42.10
2023-05-05T00:37:14.920Z,42.08
2023-05-05T00:38:14.870Z,42.50
2023-05-05T00:39:14.926Z,42.65
2023-05-05T00:40:14.953Z,41.90
2023-05-05T00:41:14.959Z,42.06
2023-05-05T00:42:15.012Z,41.82
2023-05-05T00:43:15.013Z,41.94
2023-05-05T00:44:15.012Z,41.64
2023-05-05T00:45:15.018Z,41.61
2023-05-05T00:46:15.147Z,41.50
2023-05-05T00:47:15.106Z,41.66
2023-05-05T00:48:15.156Z,42.29
2023-05-05T00:49:15.231Z,41.69
2023-05-05T00:50:15.146Z,41.19
2023-05-05T00:51:15.230Z,41.65
2023-05-05T00:52:15.168Z,41.08
2023-05-05T00:53:15.201Z,40.88
2023-05-05T00:54:15.302Z,40.41
2023-05-05T00:55:15.400Z,41.08
2023-05-05T00:56:15.227Z,41.13
2023-05-05T00:57:15.323Z,40.67
2023-05-05T00:58:15.273Z,41.09
2023-05-05T00:59:15.345Z,39.99
2023-05-05T01:00:15.371Z,40.28
2023-05-05T01:01:15.481Z,40.50
2023-05-05T01:02:15.398Z,40.37
2023-05-05T01:03:15.516Z,40.34
2023-05-05T01:04:15.436Z,39.87
2023-05-05T01:05:15.492Z,39.71
2023-05-05T01:06:15.585Z,39.09
2023-05-05T01:07:15.488Z,39.47
2023-05-05T01:08:15.544Z,39.44
2023-05-05T01:09:15.550Z,39.78
2023-05-05T01:10:19.836Z,38.52
2023-05-05T01:11:16.587Z,38.57
2023-05-05T01:12:15.576Z,38.78
2023-05-05T01:13:15.571Z,38.92
2023-05-05T01:14:15.542Z,39.33
2023-05-05T01:15:15.534Z,39.81
2023-05-05T01:16:15.586Z,39.96
2023-05-05T01:17:15.549Z,39.58
2023-05-05T01:18:16.381Z,39.35
2023-05-05T01:19:15.519Z,38.69
2023-05-05T01:20:15.505Z,38.80
2023-05-05T01:21:15.508Z,39.40
2023-05-05T01:22:15.512Z,38.75
2023-05-05T01:23:15.503Z,37.83
2023-05-05T01:24:15.503Z,38.57
2023-05-05T01:25:15.517Z,37.50
2023-05-05T01:26:15.456Z,37.77
2023-05-05T01:27:15.477Z,38.24
2023-05-05T01:28:15.480Z,38.32
2023-05-05T01:29:15.482Z,38.36
2023-05-05T01:30:15.562Z,37.91
2023-05-05T01:31:15.625Z,37.30
2023-05-05T01:32:15.610Z,37.68
2023-05-05T01:33:15.669Z,37.74
2023-05-05T01:34:15.627Z,37.47
2023-05-05T01:35:15.680Z,37.25
2023-05-05T01:36:15.688Z,37.17
2023-05-05T01:37:15.636Z,37.04
2023-05-05T01:38:15.753Z,37.48
2023-05-05T01:39:15.749Z,36.75
2023-05-05T01:40:15.764Z,36.28
2023-05-05T01:41:15.736Z,36.59
2023-05-05T01:42:15.826Z,36.19
2023-05-05T01:43:15.842Z,37.10
2023-05-05T01:44:15.884Z,36.80
2023-05-05T01:45:15.943Z,36.45
2023-05-05T01:46:16.092Z,36.86
2023-05-05T01:47:16.026Z,36.35
2023-05-05T01:48:16.019Z,35.93
2023-05-05T01:49:16.020Z,35.86
2023-05-05T01:50:16.104Z,35.54
2023-05-05T01:51:16.114Z,34.75
2023-05-05T01:52:16.110Z,35.43
2023-05-05T01:53:16.101Z,35.72
2023-05-05T01:54:16.164Z,34.87
2023-05-05T01:55:16.164Z,35.33
2023-05-05T01:56:16.180Z,35.40
2023-05-05T01:57:16.172Z,34.64
2023-05-05T01:58:16.169Z,35.05
2023-05-05T01:59:16.195Z,34.63
2023-05-05T02:00:16.257Z,34.40
2023-05-05T02:01:16.271Z,34.34
2023-05-05T02:02:16.273Z,34.74
2023-05-05T02:03:16.387Z,34.46
2023-05-05T02:04:16.431Z,34.00
2023-05-05T02:05:16.365Z,34.00
2023-05-05T02:06:16.338Z,33.70
2023-05-05T02:07:16.461Z,33.89
2023-05-05T02:08:16.404Z,33.52
2023-05-05T02:09:16.416Z,33.17
2023-05-05T02:10:16.420Z,33.77
2023-05-05T02:11:16.445Z,34.02
2023-05-05T02:12:16.484Z,32.84
2023-05-05T02:13:16.700Z,32.83
2023-05-05T02:14:16.508Z,33.11
2023-05-05T02:15:16.604Z,33.09
2023-05-05T02:16:16.649Z,33.11
2023-05-05T02:17:16.598Z,32.78
2023-05-05T02:18:16.586Z,32.84
2023-05-05T02:19:16.616Z,33.07
2023-05-05T02:20:16.607Z,32.55
2023-05-05T02:21:16.618Z,32.38
2023-05-05T02:22:16.714Z,32.56
2023-05-05T02:23:16.714Z,32.43
2023-05-05T02:24:16.726Z,32.00
2023-05-05T02:25:16.800Z,31.71
2023-05-05T02:26:16.836Z,32.19
2023-05-05T02:27:16.857Z,31.47
2023-05-05T02:28:16.876Z,31.34
2023-05-05T02:29:16.881Z,31.65
2023-05-05T02:30:16.940Z,31.45
2023-05-05T02:31:16.925Z,31.22
2023-05-05T02:32:17.106Z,31.42
2023-05-05T02:33:16.955Z,31.42
2023-05-05T02:34:17.005Z,31.18
2023-05-05T02:35:17.086Z,31.19
2023-05-05T02:36:17.022Z,31.49
2023-05-05T02:37:17.134Z,31.03
2023-05-05T02:38:17.217Z,30.76
2023-05-05T02:39:17.137Z,30.12
2023-05-05T02:40:17.151Z,30.45
2023-05-05T02:41:17.205Z,30.42
2023-05-05T02:42:17.155Z,29.76
2023-05-05T02:43:17.274Z,30.16
2023-05-05T02:44:17.275Z,30.45
2023-05-05T02:45:17.283Z,30.50
2023-05-05T02:46:17.338Z,30.01
2023-05-05T02:47:17.295Z,29.78
2023-05-05T02:48:17.395Z,30.36
2023-05-05T02:49:17.416Z,29.80
2023-05-05T02:50:17.332Z,30.02
2023-05-05T02:51:17.337Z,30.05
2023-05-05T02:52:17.392Z,29.70
2023-05-05T02:53:17.965Z,29.69
2023-05-05T02:54:17.430Z,29.45
2023-05-05T02:55:17.477Z,29.96
2023-05-05T02:56:17.433Z,29.55
2023-05-05T02:57:17.467Z,29.48
2023-05-05T02:58:17.498Z,29.76
2023-05-05T02:59:17.604Z,29.51
2023-05-05T03:00:17.561Z,28.93
2023-05-05T03:01:17.647Z,28.77
2023-05-05T03:02:17.931Z,29.20
2023-05-05T03:03:17.771Z,29.08
2023-05-05T03:04:17.724Z,28.71
2023-05-05T03:05:17.725Z,28.88
2023-05-05T03:06:17.759Z,28.37
2023-05-05T03:07:17.813Z,27.87
2023-05-05T03:08:17.821Z,28.09
2023-05-05T03:09:17.810Z,27.89
2023-05-05T03:10:17.792Z,28.17
2023-05-05T03:11:17.833Z,28.08
2023-05-05T03:12:17.843Z,28.02
2023-05-05T03:13:17.890Z,27.24
2023-05-05T03:14:17.922Z,27.56
2023-05-05T03:15:17.961Z,27.75
2023-05-05T03:16:18.010Z,27.62
2023-05-05T03:17:17.981Z,27.30
2023-05-05T03:18:18.028Z,27.32
2023-05-05T03:19:18.033Z,27.17
2023-05-05T03:20:18.106Z,26.75
2023-05-05T03:21:18.106Z,26.50
2023-05-05T03:22:18.109Z,27.26
2023-05-05T03:23:18.167Z,27.04
2023-05-05T03:24:18.150Z,26.96
2023-05-05T03:25:18.174Z,26.56
2023-05-05T03:26:18.190Z,27.02
2023-05-05T03:27:18.269Z,26.77
2023-05-05T03:28:18.304Z,26.59
2023-05-05T03:29:18.268Z,26.55
2023-05-05T03:30:18.305Z,26.64
2023-05-05T03:31:18.518Z,26.58
2023-05-05T03:32:18.404Z,26.61
2023-05-05T03:33:18.461Z,26.72
2023-05-05T03:34:18.438Z,26.53
2023-05-05T03:35:18.452Z,25.97
2023-05-05T03:36:18.454Z,26.16
2023-05-05T03:37:18.543Z,26.22
2023-05-05T03:38:18.535Z,26.22
2023-05-05T03:39:18.578Z,26.32
2023-05-05T03:40:18.608Z,26.06
2023-05-05T03:41:18.612Z,26.04
2023-05-05T03:42:18.679Z,25.77
2023-05-05T03:43:18.669Z,25.77
2023-05-05T03:44:18.732Z,26.02
2023-05-05T03:45:18.733Z,26.07
2023-05-05T03:46:18.790Z,25.39
2023-05-05T03:47:18.706Z,25.35
2023-05-05T03:48:18.737Z,25.96
2023-05-05T03:49:18.735Z,25.48
2023-05-05T03:50:18.774Z,25.36
2023-05-05T03:51:18.823Z,25.44
2023-05-05T03:52:18.876Z,25.56
2023-05-05T03:53:18.885Z,25.38
2023-05-05T03:54:18.892Z,25.12
2023-05-05T03:55:18.978Z,25.85
2023-05-05T03:56:18.957Z,25.07
2023-05-05T03:57:18.969Z,25.22
2023-05-05T03:58:18.971Z,25.11
2023-05-05T03:59:18.979Z,24.89
2023-05-05T04:00:19.138Z,25.50
2023-05-05T04:01:19.062Z,24.82
2023-05-05T04:02:19.182Z,24.80
2023-05-05T04:03:19.304Z,25.20
2023-05-05T04:04:19.290Z,25.22
2023-05-05T04:05:19.170Z,25.37
2023-05-05T04:06:19.181Z,24.86
2023-05-05T04:07:19.252Z,24.72
2023-05-05T04:08:19.239Z,24.47
2023-05-05T04:09:19.258Z,25.17
2023-05-05T04:10:19.309Z,25.72
2023-05-05T04:11:19.284Z,25.83
2023-05-05T04:12:19.333Z,24.80
2023-05-05T04:13:19.326Z,24.08
2023-05-05T04:14:19.968Z,23.10
2023-05-05T04:15:19.404Z,23.14
2023-05-05T04:16:19.501Z,22.09
2023-05-05T04:17:19.469Z,21.49
2023-05-05T04:18:19.532Z,21.00
2023-05-05T04:19:19.569Z,20.22
2023-05-05T04:20:19.562Z,20.42
2023-05-05T04:21:19.547Z,18.63
2023-05-05T04:22:19.604Z,18.57
2023-05-05T04:23:19.623Z,18.13
2023-05-05T04:24:20.444Z,17.25
2023-05-05T04:25:19.624Z,16.94
2023-05-05T04:26:19.674Z,16.41
2023-05-05T04:27:19.702Z,16.26
2023-05-05T04:28:21.607Z,16.01
2023-05-05T04:29:19.722Z,15.72
2023-05-05T04:30:19.717Z,15.27
2023-05-05T04:31:19.822Z,14.78
2023-05-05T04:32:19.817Z,14.87
2023-05-05T04:33:19.933Z,14.76
2023-05-05T04:34:19.793Z,14.68
2023-05-05T04:35:19.838Z,14.17
2023-05-05T04:36:19.913Z,14.12
2023-05-05T04:37:19.866Z,14.16
2023-05-05T04:38:19.952Z,13.95
2023-05-05T04:39:19.927Z,14.05
2023-05-05T04:40:19.941Z,13.72
2023-05-05T04:41:20.001Z,13.84
2023-05-05T04:42:19.989Z,13.87
2023-05-05T04:43:20.003Z,13.67
2023-05-05T04:44:20.016Z,13.71
2023-05-05T04:45:20.091Z,13.76
2023-05-05T04:46:20.142Z,13.74
2023-05-05T04:47:20.080Z,13.60
2023-05-05T04:48:20.088Z,13.83
2023-05-05T04:49:20.104Z,13.44
2023-05-05T04:50:20.121Z,13.63
2023-05-05T04:51:20.167Z,13.80
2023-05-05T04:52:20.168Z,14.09
2023-05-05T04:53:20.158Z,14.10
2023-05-05T04:54:20.951Z,14.43
2023-05-05T04:55:20.210Z,14.14
2023-05-05T04:56:20.251Z,14.19
2023-05-05T04:57:20.218Z,14.07
2023-05-05T04:58:20.319Z,14.29
2023-05-05T04:59:20.272Z,14.07
2023-05-05T05:00:20.268Z,13.93
2023-05-05T05:01:20.371Z,13.88
2023-05-05T05:02:20.314Z,14.01
2023-05-05T05:03:20.388Z,13.65
2023-05-05T05:04:20.413Z,13.36
2023-05-05T05:05:20.376Z,13.37
2023-05-05T05:06:20.422Z,13.31
2023-05-05T05:07:20.427Z,13.51
2023-05-05T05:08:20.511Z,13.08
2023-05-05T05:09:20.496Z,13.14
2023-05-05T05:10:20.520Z,13.18
2023-05-05T05:11:20.559Z,12.94
2023-05-05T05:12:20.570Z,12.87
2023-05-05T05:13:20.720Z,12.74
2023-05-05T05:14:20.624Z,12.91
2023-05-05T05:15:20.687Z,12.83
2023-05-05T05:16:20.750Z,12.80
2023-05-05T05:17:20.701Z,12.51
2023-05-05T05:18:20.710Z,12.79
2023-05-05T05:19:20.749Z,12.78
2023-05-05T05:20:20.761Z,12.66
2023-05-05T05:21:20.759Z,12.70
2023-05-05T05:22:20.805Z,12.58
2023-05-05T05:23:20.862Z,12.93
2023-05-05T05:24:20.857Z,12.85
2023-05-05T05:25:20.911Z,12.78
2023-05-05T05:26:20.927Z,12.66
2023-05-05T05:27:20.928Z,13.15
2023-05-05T05:28:21.495Z,13.08
2023-05-05T05:29:21.057Z,13.28
2023-05-05T05:30:21.021Z,13.50
2023-05-05T05:31:21.094Z,13.55
2023-05-05T05:32:21.159Z,13.43
2023-05-05T05:33:21.136Z,13.30
2023-05-05T05:34:21.106Z,13.15
2023-05-05T05:35:21.285Z,13.38
2023-05-05T05:36:21.492Z,13.16
2023-05-05T05:37:21.306Z,13.03
2023-05-05T05:38:21.237Z,13.15
2023-05-05T05:39:21.229Z,13.32
2023-05-05T05:40:21.551Z,12.82
2023-05-05T05:41:22.055Z,12.30
2023-05-05T05:42:21.459Z,11.96
2023-05-05T05:43:21.349Z,11.43
2023-05-05T05:44:21.361Z,11.06
2023-05-05T05:45:21.432Z,11.06
2023-05-05T05:46:22.068Z,11.02
2023-05-05T05:47:21.584Z,10.79
2023-05-05T05:48:21.489Z,10.77
2023-05-05T05:49:21.572Z,10.47
2023-05-05T05:50:22.084Z,10.10
2023-05-05T05:51:22.042Z,10.22
2023-05-05T05:52:22.094Z,10.01
2023-05-05T05:53:22.404Z,9.48
2023-05-05T05:54:22.570Z,9.83
2023-05-05T05:55:21.817Z,9.75
2023-05-05T05:56:21.709Z,9.70
2023-05-05T05:57:22.032Z,9.85
2023-05-05T05:58:23.013Z,10.02
2023-05-05T05:59:22.246Z,9.92
2023-05-05T06:00:22.086Z,9.95
2023-05-05T06:01:21.850Z,9.88
2023-05-05T06:02:22.079Z,10.09
2023-05-05T06:03:22.100Z,10.27
2023-05-05T06:04:22.054Z,10.24
2023-05-05T06:05:21.878Z,9.98
2023-05-05T06:06:21.918Z,10.20
2023-05-05T06:07:21.928Z,10.02
2023-05-05T06:08:24.888Z,9.99
2023-05-05T06:09:21.946Z,10.08
2023-05-05T06:10:28.019Z,10.01
2023-05-05T06:11:22.944Z,10.03
2023-05-05T06:12:21.923Z,10.06
2023-05-05T06:13:21.993Z,10.06
2023-05-05T06:14:22.192Z,10.08
2023-05-05T06:15:21.952Z,10.00
2023-05-05T06:16:21.942Z,9.97
2023-05-05T06:17:22.478Z,9.61
2023-05-05T06:18:21.929Z,8.80
2023-05-05T06:19:21.887Z,8.54
2023-05-05T06:20:21.886Z,8.50
2023-05-05T06:21:22.005Z,8.55
2023-05-05T06:22:21.862Z,8.12
2023-05-05T06:23:21.822Z,7.68
2023-05-05T06:24:21.855Z,7.44
2023-05-05T06:25:21.848Z,7.83
2023-05-05T06:26:21.830Z,7.34
2023-05-05T06:27:21.799Z,6.54
2023-05-05T06:28:22.047Z,6.01
2023-05-05T06:29:21.867Z,5.84
2023-05-05T06:30:22.016Z,6.18
2023-05-05T06:31:21.999Z,6.05
2023-05-05T06:32:22.492Z,6.22
2023-05-05T06:33:21.922Z,6.13
2023-05-05T06:34:22.489Z,5.96
2023-05-05T06:35:21.991Z,5.89
2023-05-05T06:36:22.522Z,5.85
2023-05-05T06:37:22.003Z,5.92
2023-05-05T06:38:22.043Z,6.01
2023-05-05T06:39:22.064Z,5.80
2023-05-05T06:40:22.986Z,5.65
2023-05-05T06:41:22.986Z,5.54
2023-05-05T06:42:22.157Z,5.46
2023-05-05T06:43:22.273Z,5.22
2023-05-05T06:44:22.262Z,5.35
2023-05-05T06:45:22.523Z,5.31
2023-05-05T06:46:22.218Z,5.20
2023-05-05T06:47:22.299Z,5.56
2023-05-05T06:48:22.238Z,5.44
2023-05-05T06:49:22.300Z,5.54
2023-05-05T06:50:22.313Z,5.69
2023-05-05T06:51:23.027Z,5.60
2023-05-05T06:52:22.505Z,5.72
2023-05-05T06:53:23.054Z,5.71
2023-05-05T06:54:22.421Z,5.84
2023-05-05T06:55:22.677Z,6.04
2023-05-05T06:56:24.012Z,6.13
2023-05-05T06:57:22.492Z,5.97
2023-05-05T06:58:22.465Z,5.27
2023-05-05T06:59:23.097Z,5.14
2023-05-05T07:00:22.615Z,4.99
2023-05-05T07:01:22.573Z,4.89
2023-05-05T07:02:24.040Z,4.59
2023-05-05T07:03:22.684Z,4.27
2023-05-05T07:04:23.128Z,3.90
2023-05-05T07:05:22.633Z,3.89
2023-05-05T07:06:22.704Z,3.79
2023-05-05T07:07:22.746Z,4.10
2023-05-05T07:08:22.530Z,4.03
2023-05-05T07:09:22.553Z,4.16
2023-05-05T07:10:24.162Z,4.18
2023-05-05T07:11:22.549Z,4.05
2023-05-05T07:12:22.472Z,3.65
2023-05-05T07:13:24.045Z,3.37
2023-05-05T07:14:24.264Z,3.24
2023-05-05T07:15:28.590Z,3.09
2023-05-05T07:16:23.531Z,3.09
2023-05-05T07:17:22.530Z,2.92
2023-05-05T07:18:22.506Z,2.76
2023-05-05T07:19:22.514Z,2.77
2023-05-05T07:20:22.467Z,2.75
2023-05-05T07:21:23.045Z,2.65
2023-05-05T07:22:23.356Z,2.63
2023-05-05T07:23:22.455Z,2.53
2023-05-05T07:24:22.449Z,2.38
2023-05-05T07:25:22.447Z,2.27
2023-05-05T07:26:22.514Z,2.23
2023-05-05T07:27:22.512Z,2.16
2023-05-05T07:28:22.683Z,2.16
2023-05-05T07:29:22.485Z,1.98
2023-05-05T07:30:22.815Z,1.98
2023-05-05T07:31:22.526Z,1.91
2023-05-05T07:32:22.634Z,1.81
2023-05-05T07:33:22.534Z,1.79
2023-05-05T07:34:22.628Z,1.71
2023-05-05T07:35:23.149Z,1.72
2023-05-05T07:36:24.386Z,1.75
2023-05-05T07:37:22.674Z,1.67
2023-05-05T07:38:24.568Z,1.70
2023-05-05T07:39:23.188Z,1.63
2023-05-05T07:40:24.532Z,1.78
2023-05-05T07:41:22.792Z,1.85
2023-05-05T07:42:23.727Z,1.89
2023-05-05T07:43:22.876Z,1.85
2023-05-05T07:44:23.012Z,1.96
2023-05-05T07:45:23.541Z,2.05
2023-05-05T07:46:23.747Z,2.18
2023-05-05T07:47:23.048Z,2.19
2023-05-05T07:48:23.027Z,2.31
2023-05-05T07:49:23.121Z,2.13
2023-05-05T07:50:24.355Z,2.09
2023-05-05T07:51:23.124Z,1.99
2023-05-05T07:52:37.384Z,2.01
2023-05-05T07:53:24.184Z,1.82
2023-05-05T07:54:23.263Z,1.53
2023-05-05T07:55:23.120Z,1.41
2023-05-05T07:56:23.067Z,1.26
2023-05-05T07:57:23.083Z,1.12
2023-05-05T07:58:23.079Z,1.05
2023-05-05T07:59:23.098Z,0.99
2023-05-05T08:00:23.083Z,1.07
2023-05-05T08:01:23.037Z,1.13
2023-05-05T08:02:24.090Z,1.14
2023-05-05T08:03:23.115Z,1.13
2023-05-05T08:04:23.108Z,1.15
2023-05-05T08:05:23.025Z,1.11
2023-05-05T08:06:23.031Z,1.15
2023-05-05T08:07:23.044Z,1.25
2023-05-05T08:08:23.393Z,1.25
2023-05-05T08:09:23.100Z,1.10
2023-05-05T08:10:23.151Z,1.07
2023-05-05T08:11:27.797Z,1.10
2023-05-05T08:12:23.107Z,1.10
2023-05-05T08:13:23.097Z,1.05
2023-05-05T08:14:23.335Z,1.05
2023-05-05T08:15:23.119Z,1.11
2023-05-05T08:16:23.116Z,1.13
2023-05-05T08:17:23.117Z,1.13
2023-05-05T08:18:23.075Z,1.01
2023-05-05T08:19:29.411Z,1.08
2023-05-05T08:20:24.762Z,1.09
2023-05-05T08:21:23.062Z,1.10
2023-05-05T08:22:23.049Z,1.12
2023-05-05T08:23:23.061Z,1.13
2023-05-05T08:24:23.097Z,1.16
2023-05-05T08:25:23.049Z,1.18
2023-05-05T08:26:23.068Z,1.16
2023-05-05T08:27:22.984Z,1.04
2023-05-05T08:28:25.544Z,0.99
2023-05-05T08:29:24.054Z,0.96
2023-05-05T08:30:23.331Z,0.86
2023-05-05T08:31:23.267Z,0.80
2023-05-05T08:32:23.273Z,0.78
2023-05-05T08:33:23.254Z,0.67
2023-05-05T08:34:23.324Z,0.65
2023-05-05T08:35:23.551Z,0.66
2023-05-05T08:36:23.550Z,0.65
2023-05-05T08:37:23.556Z,0.61
2023-05-05T08:38:23.356Z,0.57
2023-05-05T08:39:23.358Z,0.57
2023-05-05T08:40:23.460Z,0.55
2023-05-05T08:41:23.447Z,0.61
2023-05-05T08:42:36.417Z,0.68
2023-05-05T08:43:24.436Z,0.64
2023-05-05T08:44:23.472Z,0.61
2023-05-05T08:45:23.402Z,0.68
2023-05-05T08:46:23.754Z,0.74
2023-05-05T08:47:23.440Z,0.74
2023-05-05T08:48:23.432Z,0.69
2023-05-05T08:49:23.594Z,0.74
2023-05-05T08:50:23.371Z,0.82
2023-05-05T08:51:23.384Z,0.84
2023-05-05T08:52:23.527Z,0.89
2023-05-05T08:53:23.419Z,0.95
2023-05-05T08:54:23.561Z,0.97
2023-05-05T08:55:23.328Z,0.98
2023-05-05T08:56:23.315Z,0.93
2023-05-05T08:57:23.331Z,0.88
2023-05-05T08:58:23.320Z,1.01
2023-05-05T08:59:23.344Z,0.98
2023-05-05T09:00:23.400Z,0.96
2023-05-05T09:01:23.387Z,1.01
2023-05-05T09:02:23.552Z,1.10
2023-05-05T09:03:24.203Z,1.13
2023-05-05T09:04:23.587Z,1.15
2023-05-05T09:05:23.428Z,1.12
2023-05-05T09:06:23.498Z,1.17
2023-05-05T09:07:23.488Z,1.06
2023-05-05T09:08:23.548Z,0.95
2023-05-05T09:09:26.038Z,1.05
2023-05-05T09:10:23.677Z,1.08
2023-05-05T09:11:23.672Z,1.17
2023-05-05T09:12:24.094Z,1.26
2023-05-05T09:13:23.709Z,1.31
2023-05-05T09:14:23.705Z,1.30
2023-05-05T09:15:23.772Z,1.40
2023-05-05T09:16:23.808Z,1.42
2023-05-05T09:17:23.792Z,1.46
2023-05-05T09:18:24.194Z,1.44
2023-05-05T09:19:24.092Z,1.39
2023-05-05T09:20:23.889Z,1.39
2023-05-05T09:21:24.042Z,1.45
2023-05-05T09:22:23.954Z,1.48
2023-05-05T09:23:24.069Z,1.49
2023-05-05T09:24:24.000Z,1.41
2023-05-05T09:25:24.023Z,1.48
2023-05-05T09:26:24.037Z,1.43
2023-05-05T09:27:24.631Z,1.40
2023-05-05T09:28:24.133Z,1.37
2023-05-05T09:29:24.118Z,1.38
2023-05-05T09:30:24.251Z,1.36
2023-05-05T09:31:24.197Z,1.31
2023-05-05T09:32:24.205Z,1.27
2023-05-05T09:33:24.240Z,1.20
2023-05-05T09:34:24.299Z,1.29
2023-05-05T09:35:25.075Z,1.18
2023-05-05T09:36:24.572Z,1.06
2023-05-05T09:37:25.097Z,0.91
2023-05-05T09:38:24.607Z,0.95
2023-05-05T09:39:24.439Z,1.01
2023-05-05T09:40:24.394Z,0.98
2023-05-05T09:41:24.445Z,1.10
2023-05-05T09:42:24.454Z,1.22
2023-05-05T09:43:24.590Z,1.18
2023-05-05T09:44:24.629Z,1.18
2023-05-05T09:45:24.533Z,1.16
2023-05-05T09:46:24.708Z,1.17
2023-05-05T09:47:29.981Z,1.21
2023-05-05T09:48:25.629Z,1.21
2023-05-05T09:49:24.604Z,1.21
2023-05-05T09:50:24.727Z,1.22
2023-05-05T09:51:24.578Z,1.26
2023-05-05T09:52:24.788Z,1.27
2023-05-05T09:53:25.117Z,1.23
2023-05-05T09:54:27.094Z,1.23
2023-05-05T09:55:24.707Z,1.27
2023-05-05T09:56:24.694Z,1.53
2023-05-05T09:57:24.857Z,1.48
2023-05-05T09:58:24.848Z,1.51
2023-05-05T09:59:24.882Z,1.48
2023-05-05T10:00:24.838Z,1.55
2023-05-05T10:01:24.851Z,1.43
2023-05-05T10:02:24.879Z,1.56
2023-05-05T10:03:24.908Z,1.60
2023-05-05T10:04:24.937Z,1.39
2023-05-05T10:05:25.745Z,1.28
2023-05-05T10:06:24.977Z,1.23
2023-05-05T10:07:24.986Z,0.96
2023-05-05T10:08:24.998Z,0.76
2023-05-05T10:09:25.096Z,0.81
2023-05-05T10:10:26.060Z,0.80
2023-05-05T10:11:25.075Z,0.78
2023-05-05T10:12:25.070Z,0.75
2023-05-05T10:13:25.144Z,0.81
2023-05-05T10:14:25.150Z,0.75
2023-05-05T10:15:26.079Z,0.78
2023-05-05T10:16:27.334Z,0.81
2023-05-05T10:17:25.328Z,0.79
2023-05-05T10:18:25.286Z,0.80
2023-05-05T10:19:25.280Z,0.82
2023-05-05T10:20:25.285Z,0.83
2023-05-05T10:21:25.406Z,0.82
2023-05-05T10:22:25.325Z,0.76
2023-05-05T10:23:25.352Z,0.66
2023-05-05T10:24:25.350Z,0.62
2023-05-05T10:25:25.359Z,0.63
2023-05-05T10:26:25.526Z,0.64
2023-05-05T10:27:25.553Z,0.62
2023-05-05T10:28:25.437Z,0.60
2023-05-05T10:29:25.457Z,0.62
2023-05-05T10:30:25.504Z,0.62
2023-05-05T10:31:26.811Z,0.67
2023-05-05T10:32:51.514Z,0.69
2023-05-05T10:33:32.210Z,0.69
2023-05-05T10:34:26.701Z,0.70
2023-05-05T10:35:25.606Z,0.71
2023-05-05T10:36:25.631Z,0.75
2023-05-05T10:37:25.618Z,0.78
2023-05-05T10:38:26.796Z,0.79
2023-05-05T10:39:25.624Z,0.87
2023-05-05T10:40:25.530Z,0.90
2023-05-05T10:41:25.684Z,0.98
2023-05-05T10:42:25.590Z,0.96
2023-05-05T10:43:25.542Z,0.96
2023-05-05T10:44:26.208Z,0.93
2023-05-05T10:45:25.623Z,0.90
2023-05-05T10:46:25.674Z,0.83
2023-05-05T10:47:25.556Z,0.73
2023-05-05T10:48:25.515Z,0.62
2023-05-05T10:49:26.091Z,0.59
2023-05-05T10:50:26.104Z,0.64
2023-05-05T10:51:38.622Z,0.72
2023-05-05T10:52:26.482Z,0.72
2023-05-05T10:53:25.463Z,0.73
2023-05-05T10:54:25.599Z,0.70
2023-05-05T10:55:25.631Z,0.62
2023-05-05T10:56:25.489Z,0.59
2023-05-05T10:57:25.431Z,0.63
2023-05-05T10:58:25.480Z,0.63
2023-05-05T10:59:25.391Z,0.60
2023-05-05T11:00:25.496Z,0.58
2023-05-05T11:01:25.537Z,0.62
2023-05-05T11:02:25.708Z,0.63
2023-05-05T11:03:25.502Z,0.64
2023-05-05T11:04:25.322Z,0.62
2023-05-05T11:05:25.322Z,0.55
2023-05-05T11:06:25.352Z,0.50
2023-05-05T11:07:25.334Z,0.52
2023-05-05T11:08:25.566Z,0.52
2023-05-05T11:09:25.440Z,0.50
2023-05-05T11:10:25.489Z,0.52
2023-05-05T11:11:25.433Z,0.50
2023-05-05T11:12:25.582Z,0.50
2023-05-05T11:13:25.524Z,0.50
2023-05-05T11:14:25.662Z,0.50
2023-05-05T11:15:25.572Z,0.51
2023-05-05T11:16:25.616Z,0.53
2023-05-05T11:17:25.830Z,0.55
2023-05-05T11:18:25.689Z,0.53
2023-05-05T11:19:26.573Z,0.50
2023-05-05T11:20:25.654Z,0.50
2023-05-05T11:21:26.738Z,0.53
2023-05-05T11:22:25.740Z,0.50
2023-05-05T11:23:25.801Z,0.51
2023-05-05T11:24:25.784Z,0.52
2023-05-05T11:25:26.788Z,0.50
2023-05-05T11:26:26.174Z,0.52
2023-05-05T11:27:25.873Z,0.50
2023-05-05T11:28:25.882Z,0.51
2023-05-05T11:29:25.933Z,0.54
2023-05-05T11:30:25.997Z,0.50
2023-05-05T11:31:26.174Z,0.50
2023-05-05T11:32:26.256Z,0.50
2023-05-05T11:33:26.120Z,0.50
2023-05-05T11:34:26.688Z,0.53
2023-05-05T11:35:26.154Z,0.50
2023-05-05T11:36:26.190Z,0.50
2023-05-05T11:37:26.260Z,0.50
2023-05-05T11:38:26.253Z,0.51
2023-05-05T11:39:26.377Z,0.54
2023-05-05T11:40:26.344Z,0.55
2023-05-05T11:41:26.432Z,0.54
2023-05-05T11:42:26.518Z,0.53
2023-05-05T11:43:26.432Z,0.55
2023-05-05T11:44:26.481Z,0.65
2023-05-05T11:45:26.515Z,0.63
2023-05-05T11:46:26.731Z,0.65
2023-05-05T11:47:26.636Z,0.60
2023-05-05T11:48:26.658Z,0.61
2023-05-05T11:49:26.762Z,0.57
2023-05-05T11:50:26.735Z,0.53
2023-05-05T11:51:26.749Z,0.58
2023-05-05T11:52:26.866Z,0.63
2023-05-05T11:53:27.637Z,0.58
2023-05-05T11:54:26.873Z,0.55
2023-05-05T11:55:27.014Z,0.57
2023-05-05T11:56:27.181Z,0.54
2023-05-05T11:57:27.189Z,0.56
2023-05-05T11:58:27.139Z,0.55
2023-05-05T11:59:27.098Z,0.50
2023-05-05T12:00:27.113Z,0.49
2023-05-05T12:01:27.120Z,0.50
2023-05-05T12:02:27.244Z,0.50
2023-05-05T12:03:27.624Z,0.50
2023-05-05T12:04:27.253Z,0.63
2023-05-05T12:05:27.287Z,0.61
2023-05-05T12:06:27.364Z,0.61
2023-05-05T12:07:27.374Z,0.56
2023-05-05T12:08:27.366Z,0.53
2023-05-05T12:09:27.444Z,0.53
2023-05-05T12:10:27.453Z,0.60
2023-05-05T12:11:27.529Z,0.59
2023-05-05T12:12:27.568Z,0.58
2023-05-05T12:13:27.671Z,0.61
2023-05-05T12:14:27.676Z,0.65
2023-05-05T12:15:27.653Z,0.66
2023-05-05T12:16:27.669Z,0.70
2023-05-05T12:17:27.700Z,0.73
2023-05-05T12:18:27.742Z,0.80
2023-05-05T12:19:27.769Z,0.78
2023-05-05T12:20:27.768Z,0.77
2023-05-05T12:21:27.829Z,0.75
2023-05-05T12:22:27.949Z,0.76
2023-05-05T12:23:27.890Z,0.70
2023-05-05T12:24:27.949Z,0.75
2023-05-05T12:25:28.000Z,0.82
2023-05-05T12:26:28.093Z,0.83
2023-05-05T12:27:28.073Z,0.84
2023-05-05T12:28:28.140Z,0.87
2023-05-05T12:29:28.196Z,0.84
2023-05-05T12:30:28.328Z,0.89
2023-05-05T12:31:28.286Z,0.86
2023-05-05T12:32:28.327Z,0.87
2023-05-05T12:33:28.300Z,0.89
2023-05-05T12:34:28.319Z,0.88
2023-05-05T12:35:28.381Z,0.94
2023-05-05T12:36:29.861Z,0.95
2023-05-05T12:37:28.494Z,0.96
2023-05-05T12:38:28.504Z,0.92
2023-05-05T12:39:28.554Z,0.96
2023-05-05T12:40:28.669Z,0.95
2023-05-05T12:41:28.640Z,0.94
2023-05-05T12:42:28.635Z,0.91
2023-05-05T12:43:28.798Z,0.97
2023-05-05T12:44:28.749Z,1.17
2023-05-05T12:45:28.752Z,1.25
2023-05-05T12:46:28.844Z,1.22
2023-05-05T12:47:28.885Z,1.23
2023-05-05T12:48:28.896Z,1.30
2023-05-05T12:49:28.944Z,1.35
2023-05-05T12:50:29.008Z,1.31
2023-05-05T12:51:29.048Z,1.24
2023-05-05T12:52:29.087Z,1.20
2023-05-05T12:53:29.084Z,1.13
2023-05-05T12:54:29.183Z,1.18
2023-05-05T12:55:29.173Z,1.21
2023-05-05T12:56:29.241Z,1.14
2023-05-05T12:57:29.254Z,1.14
2023-05-05T12:58:29.313Z,1.15
2023-05-05T12:59:29.366Z,1.12
2023-05-05T13:00:29.383Z,1.15
2023-05-05T13:01:29.432Z,1.20
2023-05-05T13:02:29.562Z,1.10
2023-05-05T13:03:29.553Z,1.13
2023-05-05T13:04:29.562Z,1.26
2023-05-05T13:05:29.561Z,1.33
2023-05-05T13:06:29.626Z,1.25